Time;durP1;ratioP1;P1;durP2;ratioP2;P2;SDS_P1;SDS_P2;PMS_P1;PMS_P2;Temp;Humidity;BMP_temperature;BMP_pressure;BME280_temperature;BME280_humidity;BME280_pressure;Samples;Min_cycle;Max_cycle;Signal;HPM_P1;HPM_P2
2023/01/26 00:01:52;;;;;;;48.50;22.40;;;;;;;0.05;87.43;101757.59;124866;1102;101894;-82
2023/01/26 00:04:24;;;;;;;50.73;22.30;;;;;;;0.03;87.40;101753.96;124907;1102;102118;-81
2023/01/26 00:06:55;;;;;;;54.47;23.60;;;;;;;0.04;87.25;101754.11;124909;1102;101963;-81
2023/01/26 00:09:26;;;;;;;50.50;22.30;;;;;;;0.03;87.77;101749.70;124901;1102;104098;-82
2023/01/26 00:11:57;;;;;;;53.00;24.00;;;;;;;0.02;87.02;101753.06;124853;1102;104175;-82
2023/01/26 00:14:48;;;;;;;59.63;24.70;;;;;;;0.02;87.97;101739.22;124875;1102;102116;-81
2023/01/26 00:17:26;;;;;;;58.43;25.23;;;;;;;0.06;87.33;101733.61;124950;1102;102114;-81
2023/01/26 00:19:59;;;;;;;56.37;25.50;;;;;;;0.06;87.13;101736.20;124886;1101;104194;-80
2023/01/26 00:22:30;;;;;;;56.13;25.10;;;;;;;0.07;87.87;101735.45;124894;1102;104201;-81
2023/01/26 00:25:02;;;;;;;56.30;24.93;;;;;;;0.06;87.04;101731.03;124927;1102;104280;-82
2023/01/26 00:27:34;;;;;;;53.63;24.83;;;;;;;0.05;87.32;101736.95;124773;1102;102086;-81
2023/01/26 00:30:06;;;;;;;55.23;25.57;;;;;;;0.04;87.40;101732.56;124874;1101;101837;-81
2023/01/26 00:32:38;;;;;;;59.17;25.90;;;;;;;0.03;87.37;101736.80;124910;1102;104221;-82
2023/01/26 00:35:10;;;;;;;55.73;24.50;;;;;;;0.03;87.16;101734.21;124870;1102;104265;-81
2023/01/26 00:37:42;;;;;;;52.30;25.05;;;;;;;0.03;87.77;101726.47;125003;1102;104335;-82
2023/01/26 00:40:14;;;;;;;56.67;25.17;;;;;;;0.01;88.02;101722.84;124775;1102;104220;-80
2023/01/26 00:42:45;;;;;;;55.43;25.77;;;;;;;0.01;87.94;101719.36;124917;1102;101958;-82
2023/01/26 00:45:17;;;;;;;56.33;25.53;;;;;;;0.01;87.44;101719.36;124681;1105;104172;-80
2023/01/26 00:47:49;;;;;;;55.57;25.10;;;;;;;0.01;87.68;101716.78;124654;1102;104232;-80
2023/01/26 00:50:20;;;;;;;58.03;26.57;;;;;;;0.02;87.80;101722.09;124807;1102;104242;-82
2023/01/26 00:52:52;;;;;;;54.47;24.10;;;;;;;0.02;87.85;101716.00;124752;1102;104185;-82
2023/01/26 00:55:28;;;;;;;56.53;25.03;;;;;;;0.02;87.50;101708.26;124686;1102;104313;-81
2023/01/26 00:57:59;;;;;;;56.55;25.05;;;;;;;0.03;87.76;101700.66;124826;1102;104323;-81
2023/01/26 01:00:31;;;;;;;55.93;24.60;;;;;;;0.06;87.56;101705.22;124800;1102;104057;-81
2023/01/26 01:03:04;;;;;;;54.33;23.50;;;;;;;0.05;87.77;101700.81;124893;1102;104176;-81
2023/01/26 01:05:35;;;;;;;51.07;23.83;;;;;;;0.05;87.34;101694.00;124819;1102;104175;-81
2023/01/26 01:08:07;;;;;;;51.43;23.03;;;;;;;0.04;87.60;101702.49;124842;1102;101916;-81
2023/01/26 01:10:39;;;;;;;47.90;22.17;;;;;;;0.06;87.51;101697.48;124912;1101;104271;-78
2023/01/26 01:13:12;;;;;;;51.30;22.27;;;;;;;0.06;87.54;101700.06;124893;1101;104220;-81
2023/01/26 01:15:44;;;;;;;55.93;23.40;;;;;;;0.05;87.39;101698.23;124829;1102;104396;-81
2023/01/26 01:18:16;;;;;;;51.03;21.63;;;;;;;0.08;87.97;101695.95;124834;1102;102372;-82
2023/01/26 01:20:47;;;;;;;49.90;23.13;;;;;;;0.08;87.64;101688.20;124904;1102;104178;-82
2023/01/26 01:23:19;;;;;;;50.73;21.37;;;;;;;0.08;87.70;101691.72;124848;1102;104207;-81
2023/01/26 01:25:58;;;;;;;54.10;22.90;;;;;;;0.07;87.29;101679.56;124850;1102;104277;-82
2023/01/26 01:28:31;;;;;;;53.10;22.40;;;;;;;0.06;87.42;101671.67;124817;1102;104248;-82
2023/01/26 01:31:06;;;;;;;50.60;22.50;;;;;;;0.04;87.88;101668.94;124841;1102;104256;-82
2023/01/26 01:33:38;;;;;;;53.63;23.80;;;;;;;0.03;87.41;101667.11;124868;1102;104169;-82
2023/01/26 01:36:13;;;;;;;48.40;21.03;;;;;;;0.03;87.82;101658.47;124936;1102;104623;-81
2023/01/26 01:38:46;;;;;;;54.30;23.10;;;;;;;0.00;87.72;101674.59;124895;1102;104201;-82
2023/01/26 01:41:19;;;;;;;51.00;24.00;;;;;;;-0.03;88.12;101670.03;124817;1102;104335;-82
2023/01/26 01:44:06;;;;;;;56.37;24.20;;;;;;;-0.04;87.92;101677.63;124925;1102;104271;-82
2023/01/26 01:46:45;;;;;;;48.50;22.43;;;;;;;-0.07;87.36;101667.01;124893;1102;104243;-82
2023/01/26 01:49:22;;;;;;;54.87;24.63;;;;;;;-0.08;87.82;101670.34;124982;1102;102222;-78
2023/01/26 01:51:57;;;;;;;51.50;22.90;;;;;;;-0.08;87.51;101666.11;124951;1102;104277;-82
2023/01/26 01:54:38;;;;;;;57.37;24.03;;;;;;;-0.07;87.82;101667.01;124967;1102;101925;-83
2023/01/26 01:57:17;;;;;;;51.47;22.13;;;;;;;-0.07;87.91;101665.33;124920;1102;104292;-83
2023/01/26 01:59:55;;;;;;;53.93;23.53;;;;;;;-0.05;87.67;101666.41;124932;1101;104268;-82
2023/01/26 02:02:27;;;;;;;52.70;23.73;;;;;;;-0.03;87.87;101656.23;124875;1102;118262;-83
2023/01/26 02:05:03;;;;;;;46.20;21.00;;;;;;;0.01;88.24;101657.42;124893;1102;101916;-82
2023/01/26 02:07:38;;;;;;;53.80;23.30;;;;;;;-0.01;88.00;101655.59;124930;1102;104067;-81
2023/01/26 02:10:21;;;;;;;51.33;21.97;;;;;;;0.01;88.39;101649.69;124939;1100;102143;-82
2023/01/26 02:12:55;;;;;;;53.40;24.17;;;;;;;0.04;88.32;101647.40;124911;1102;104275;-83
2023/01/26 02:15:26;;;;;;;57.70;24.93;;;;;;;0.06;88.07;101648.45;124863;1102;103543;-82
2023/01/26 02:18:01;;;;;;;54.17;24.33;;;;;;;0.07;88.01;101642.53;124736;1102;104208;-83
2023/01/26 02:20:40;;;;;;;52.60;23.93;;;;;;;0.06;87.76;101640.70;124793;1102;104220;-82
2023/01/26 02:23:22;;;;;;;52.00;22.73;;;;;;;0.07;87.89;101646.02;124920;1102;110338;-82
2023/01/26 02:26:11;;;;;;;56.83;23.97;;;;;;;0.08;87.94;101646.91;124784;1102;104237;-82
2023/01/26 02:28:43;;;;;;;54.80;24.17;;;;;;;0.09;87.69;101648.74;124892;1102;101920;-82
2023/01/26 02:31:16;;;;;;;53.97;23.77;;;;;;;0.08;88.07;101632.36;124729;1101;102096;-82
2023/01/26 02:33:48;;;;;;;51.87;23.30;;;;;;;0.08;87.90;101634.94;124776;1102;104230;-82
2023/01/26 02:36:21;;;;;;;55.13;23.60;;;;;;;0.08;88.33;101628.84;124744;1101;102057;-82
2023/01/26 02:39:00;;;;;;;52.38;23.15;;;;;;;0.07;88.39;101634.79;124800;1102;101915;-80
2023/01/26 02:44:20;;;;;;;56.27;25.07;;;;;;;0.08;88.03;101629.77;124854;1102;102164;-83
2023/01/26 02:46:52;;;;;;;56.10;23.67;;;;;;;0.09;88.02;101626.41;124849;1102;104300;-82
2023/01/26 02:52:13;;;;;;;60.73;25.60;;;;;;;0.11;87.97;101621.39;124761;1102;104079;-82
2023/01/26 02:57:34;;;;;;;60.07;25.47;;;;;;;0.12;87.76;101618.95;124824;1102;102211;-82
2023/01/26 03:00:10;;;;;;;58.23;25.57;;;;;;;0.13;88.10;101614.73;124801;1102;102199;-83
2023/01/26 03:02:42;;;;;;;61.13;25.20;;;;;;;0.14;88.00;101613.94;124856;1102;102086;-80
2023/01/26 03:05:17;;;;;;;58.87;25.73;;;;;;;0.14;87.94;101606.20;124878;1102;102501;-82
2023/01/26 03:07:49;;;;;;;56.87;25.10;;;;;;;0.11;88.42;101606.84;124857;1102;104349;-82
2023/01/26 03:10:23;;;;;;;;;;;;;;;0.11;88.35;101605.91;124876;1102;104278;-82
2023/01/26 03:12:56;;;;;;;57.47;23.50;;;;;;;0.11;88.19;101605.91;124909;1102;102119;-81
2023/01/26 03:29:47;;;;;;;59.70;24.93;;;;;;;0.04;88.67;101591.52;124810;1102;104168;-82
2023/01/26 03:32:19;;;;;;;59.27;25.20;;;;;;;0.06;88.61;101591.67;124854;1102;104233;-82
2023/01/26 03:34:51;;;;;;;59.53;25.13;;;;;;;0.08;88.73;101592.71;124800;1102;117851;-82
2023/01/26 03:37:22;;;;;;;61.00;25.50;;;;;;;0.09;88.07;101597.13;124749;1102;104290;-81
2023/01/26 03:57:05;;;;;;;61.03;24.43;;;;;;;0.09;88.59;101584.22;124927;1101;104317;-82
2023/01/26 03:59:41;;;;;;;56.63;23.03;;;;;;;0.07;88.34;101589.23;124849;1102;104089;-82
2023/01/26 04:08:25;;;;;;;57.43;24.77;;;;;;;0.12;88.27;101590.56;124865;1102;101877;-82
2023/01/26 04:11:15;;;;;;;58.33;25.20;;;;;;;0.12;88.28;101597.41;124861;1102;101882;-82
2023/01/26 04:22:17;;;;;;;59.93;25.17;;;;;;;0.17;88.66;101591.94;124932;1102;102390;-81
2023/01/26 04:24:51;;;;;;;62.30;26.27;;;;;;;0.20;88.49;101592.98;124735;1102;102111;-82
2023/01/26 04:27:23;;;;;;;63.17;25.80;;;;;;;0.22;88.96;101599.18;124799;1102;102636;-82
2023/01/26 04:29:55;;;;;;;62.63;25.37;;;;;;;0.24;88.88;101598.58;124776;1101;102234;-82
2023/01/26 04:32:26;;;;;;;57.77;25.53;;;;;;;0.27;88.42;101603.13;124826;1101;104245;-82
2023/01/26 04:34:58;;;;;;;59.80;25.47;;;;;;;0.28;88.90;101599.77;124801;1102;105555;-82
2023/01/26 04:37:30;;;;;;;61.93;26.20;;;;;;;0.29;89.07;101596.42;124794;1102;102046;-82
2023/01/26 04:40:03;;;;;;;60.80;25.63;;;;;;;0.30;88.70;101599.16;124735;1102;101808;-82
2023/01/26 04:42:35;;;;;;;59.70;24.83;;;;;;;0.30;88.60;101601.73;124905;1102;101963;-82
2023/01/26 04:45:11;;;;;;;62.50;27.53;;;;;;;0.30;88.51;101600.84;124798;1102;104229;-82
2023/01/26 04:47:40;;;;;;;;;;;;;;;0.31;88.97;101598.41;124831;1102;102013;-82
2023/01/26 04:50:12;;;;;;;58.43;24.97;;;;;;;0.33;88.76;101601.12;124856;1102;104259;-81
2023/01/26 04:52:44;;;;;;;63.10;24.30;;;;;;;0.33;88.79;101606.30;124865;1102;101828;-83
2023/01/26 04:55:16;;;;;;;60.13;25.63;;;;;;;0.33;88.84;101604.61;124727;1102;102480;-81
2023/01/26 04:57:47;;;;;;;66.67;26.57;;;;;;;0.34;88.99;101598.69;124608;1102;104217;-82
2023/01/26 05:00:20;;;;;;;64.30;25.60;;;;;;;0.32;88.77;101597.61;124706;1102;104189;-80
2023/01/26 05:02:51;;;;;;;58.43;24.93;;;;;;;0.30;88.64;101601.73;124858;1102;104366;-80
2023/01/26 05:05:22;;;;;;;58.97;25.53;;;;;;;0.31;88.82;101597.47;124807;1102;102975;-81
2023/01/26 05:07:54;;;;;;;55.53;23.67;;;;;;;0.31;88.74;101600.98;124820;1102;102213;-81
2023/01/26 05:10:26;;;;;;;58.50;24.90;;;;;;;0.29;88.63;101605.07;124813;1102;104166;-80
2023/01/26 05:13:17;;;;;;;61.40;25.93;;;;;;;0.28;89.02;101595.53;124748;1102;104362;-81
2023/01/26 05:16:21;;;;;;;60.57;25.97;;;;;;;0.30;88.58;101600.84;124873;1102;104178;-80
2023/01/26 05:19:24;;;;;;;60.17;25.07;;;;;;;0.32;89.04;101597.61;124726;1101;104212;-81
2023/01/26 05:22:14;;;;;;;61.50;24.70;;;;;;;0.33;88.96;101601.12;124905;1102;102190;-81
2023/01/26 05:25:04;;;;;;;64.77;24.93;;;;;;;0.34;89.23;101598.69;124828;1102;101883;-82
2023/01/26 05:27:46;;;;;;;61.60;25.33;;;;;;;0.38;89.02;101606.73;124781;1102;102023;-82
2023/01/26 05:30:17;;;;;;;64.40;26.03;;;;;;;0.41;89.02;101609.59;124886;1102;104176;-81
2023/01/26 05:32:49;;;;;;;60.67;25.90;;;;;;;0.40;89.13;101603.50;124845;1102;101939;-80
2023/01/26 05:35:20;;;;;;;59.23;25.90;;;;;;;0.42;89.10;101596.83;124739;1102;104223;-81
2023/01/26 05:37:51;;;;;;;61.70;25.27;;;;;;;0.45;88.73;101609.09;124798;1102;104089;-80
2023/01/26 05:40:23;;;;;;;66.23;27.33;;;;;;;0.45;89.00;101607.45;124850;1102;104262;-82
2023/01/26 05:42:57;;;;;;;65.87;26.80;;;;;;;0.45;88.98;101612.61;124824;1102;104245;-80
2023/01/26 05:45:54;;;;;;;63.33;26.73;;;;;;;0.45;89.24;101607.45;124878;1102;104248;-82
2023/01/26 05:48:26;;;;;;;61.57;25.87;;;;;;;0.48;89.26;101606.80;124830;1099;104175;-81
2023/01/26 05:50:58;;;;;;;61.20;25.90;;;;;;;0.48;89.26;101605.16;124929;1102;102414;-81
2023/01/26 05:53:30;;;;;;;64.43;26.37;;;;;;;0.47;89.28;101607.59;124857;1102;102721;-81
2023/01/26 05:56:01;;;;;;;59.67;25.17;;;;;;;0.48;89.17;101601.64;124852;1099;102349;-81
2023/01/26 05:58:35;;;;;;;66.03;27.50;;;;;;;0.48;88.91;101604.22;124943;1099;102357;-81
2023/01/26 06:01:07;;;;;;;64.17;26.57;;;;;;;0.44;88.66;101604.72;124856;1101;104329;-80
2023/01/26 06:03:44;;;;;;;63.05;26.85;;;;;;;0.42;88.95;101595.90;124920;1102;104181;-79
2023/01/26 06:06:15;;;;;;;61.93;26.53;;;;;;;0.40;89.05;101595.75;124820;1099;102129;-80
2023/01/26 06:08:57;;;;;;;69.07;29.20;;;;;;;0.42;89.06;101609.74;124801;1102;102144;-78
2023/01/26 06:11:37;;;;;;;62.13;25.13;;;;;;;0.44;89.20;101604.72;124910;1099;101701;-79
2023/01/26 06:14:21;;;;;;;66.53;26.35;;;;;;;0.46;88.93;101610.93;124841;1103;102586;-80
2023/01/26 06:16:53;;;;;;;66.63;26.67;;;;;;;0.48;89.32;101609.39;124824;1099;104211;-77
2023/01/26 06:19:25;;;;;;;61.03;25.17;;;;;;;0.51;89.43;101617.42;124828;1102;102601;-78
2023/01/26 06:22:01;;;;;;;62.33;26.17;;;;;;;0.55;89.15;101614.38;124826;1102;102172;-80
2023/01/26 06:24:34;;;;;;;64.43;25.40;;;;;;;0.55;89.25;101604.05;124835;1102;102364;-76
2023/01/26 06:27:06;;;;;;;63.40;27.27;;;;;;;0.58;88.95;101605.98;124762;1099;104352;-76
2023/01/26 06:29:39;;;;;;;71.20;26.77;;;;;;;0.57;89.14;101599.02;124666;1102;104259;-78
2023/01/26 06:32:13;;;;;;;64.70;26.80;;;;;;;0.56;88.92;101600.67;124876;1102;104209;-78
2023/01/26 06:34:47;;;;;;;64.07;27.13;;;;;;;0.57;89.14;101605.08;124817;1100;104248;-78
2023/01/26 06:37:19;;;;;;;69.20;27.00;;;;;;;0.61;89.27;101607.20;124917;1099;102260;-79
2023/01/26 06:39:51;;;;;;;60.87;27.53;;;;;;;0.62;89.27;101606.41;124942;1102;104363;-78
2023/01/26 06:42:22;;;;;;;68.37;27.33;;;;;;;0.64;89.07;101606.55;124824;1102;101961;-79
2023/01/26 06:44:57;;;;;;;56.80;24.53;;;;;;;0.67;89.37;101604.25;124603;1102;103114;-76
2023/01/26 06:47:27;;;;;;;;;;;;;;;0.68;89.49;101598.34;124937;1099;104265;-76
2023/01/26 06:50:01;;;;;;;60.80;24.53;;;;;;;0.67;88.96;101600.02;125283;1102;102319;-78
2023/01/26 06:52:40;;;;;;;59.50;25.10;;;;;;;0.66;89.18;101603.36;125224;1099;104175;-78
2023/01/26 06:55:36;;;;;;;59.53;23.60;;;;;;;0.63;89.06;101605.66;125217;1102;102671;-76
2023/01/26 06:58:44;;;;;;;59.83;25.80;;;;;;;0.62;89.08;101608.09;124961;1105;104256;-77
2023/01/26 07:01:51;;;;;;;49.87;19.50;;;;;;;0.63;89.06;101597.91;125200;1102;104205;-77
2023/01/26 07:04:25;;;;;;;59.90;24.97;;;;;;;0.62;88.75;101605.52;125191;1099;102409;-77
2023/01/26 07:06:57;;;;;;;54.43;23.20;;;;;;;0.63;89.16;101605.66;125345;1099;102904;-77
2023/01/26 07:09:32;;;;;;;49.60;21.00;;;;;;;0.68;88.73;101604.40;125117;1099;104214;-77
2023/01/26 07:12:03;;;;;;;50.33;22.13;;;;;;;0.70;89.00;101604.54;124916;1102;103586;-77
2023/01/26 07:14:37;;;;;;;52.53;21.67;;;;;;;0.71;88.92;101601.20;124917;1099;104146;-77
2023/01/26 07:17:08;;;;;;;52.88;22.80;;;;;;;0.70;88.68;101596.79;125069;1099;103009;-77
2023/01/26 07:19:40;;;;;;;58.47;22.73;;;;;;;0.70;88.97;101597.72;125286;1102;104792;-77
2023/01/26 07:22:13;;;;;;;60.33;24.57;;;;;;;0.73;89.09;101598.77;125194;1099;102368;-78
2023/01/26 07:24:47;;;;;;;52.30;23.00;;;;;;;0.73;88.83;101602.24;125365;1102;102388;-79
2023/01/26 07:27:29;;;;;;;50.73;22.60;;;;;;;0.73;88.74;101603.92;125231;1099;102463;-80
2023/01/26 07:30:02;;;;;;;48.37;21.20;;;;;;;0.75;89.12;101612.72;125164;1099;103232;-76
2023/01/26 07:32:33;;;;;;;46.83;20.23;;;;;;;0.76;88.76;101611.96;125106;1099;104275;-77
2023/01/26 07:35:11;;;;;;;47.63;19.40;;;;;;;0.76;88.62;101617.13;125058;1102;102917;-77
2023/01/26 07:37:43;;;;;;;42.83;19.53;;;;;;;0.77;88.75;101612.11;125254;1102;103164;-80
2023/01/26 07:40:17;;;;;;;47.57;20.20;;;;;;;0.74;87.97;101610.92;125192;1099;102562;-77
2023/01/26 07:42:50;;;;;;;48.52;20.82;;;;;;;0.76;88.30;101606.80;125370;1099;104249;-77
2023/01/26 07:45:50;;;;;;;47.57;20.10;;;;;;;0.79;88.50;101602.81;125080;1099;102777;-75
2023/01/26 07:48:25;;;;;;;42.20;18.43;;;;;;;0.79;88.56;101609.66;125040;1099;102815;-76
2023/01/26 07:51:00;;;;;;;46.87;20.57;;;;;;;0.80;88.44;101598.58;125119;1099;102163;-75
2023/01/26 07:53:41;;;;;;;47.57;20.47;;;;;;;0.81;88.94;101600.37;125097;1099;104249;-76
2023/01/26 07:56:15;;;;;;;52.07;21.13;;;;;;;0.82;88.42;101608.27;124938;1099;102386;-76
2023/01/26 07:58:54;;;;;;;50.70;22.00;;;;;;;0.84;88.70;101600.65;125010;1099;102546;-76
2023/01/26 08:01:26;;;;;;;46.37;20.13;;;;;;;0.86;88.56;101593.97;125060;1099;102644;-77
2023/01/26 08:04:00;;;;;;;45.40;21.55;;;;;;;0.87;88.67;101595.77;124848;1099;104217;-76
2023/01/26 08:06:33;;;;;;;;;;;;;;;0.89;88.55;101594.25;124911;1099;103368;-75
2023/01/26 08:09:07;;;;;;;49.53;20.97;;;;;;;0.89;88.41;101600.31;124953;1099;101885;-76
2023/01/26 08:11:43;;;;;;;48.13;21.33;;;;;;;0.91;88.42;101600.46;124882;1099;104172;-75
2023/01/26 08:14:28;;;;;;;50.23;21.10;;;;;;;0.95;88.40;101602.57;125015;1099;101933;-78
2023/01/26 08:17:00;;;;;;;;;;;;;;;0.97;88.30;101594.95;125142;1099;104190;-78
2023/01/26 08:19:50;;;;;;;48.73;20.43;;;;;;;0.94;88.52;101598.16;125867;1099;102057;-78
2023/01/26 08:26:44;;;;;;;;;;;;;;;;;;;;;
2023/01/26 08:30:14;;;;;;;44.77;19.17;;;;;;;0.88;88.09;101606.25;125590;1105;101929;-76
2023/01/26 08:33:30;;;;;;;47.87;20.70;;;;;;;0.95;88.39;101599.98;125622;1102;103064;-77
2023/01/26 08:36:15;;;;;;;47.60;20.20;;;;;;;1.05;88.28;101594.87;125797;1102;103075;-78
2023/01/26 08:39:37;;;;;;;45.60;19.83;;;;;;;1.11;88.02;101591.95;125612;1101;102553;-77
2023/01/26 08:42:14;;;;;;;45.10;19.43;;;;;;;1.12;87.57;101601.50;125646;1102;102122;-75
2023/01/26 08:44:49;;;;;;;40.97;19.47;;;;;;;1.16;88.35;101597.53;125199;1102;104121;-76
2023/01/26 08:47:31;;;;;;;44.17;20.13;;;;;;;1.17;87.65;101594.16;125165;1099;102499;-76
2023/01/26 08:50:03;;;;;;;42.77;19.60;;;;;;;1.18;87.88;101599.47;125227;1099;104201;-77
2023/01/26 08:52:43;;;;;;;42.47;19.73;;;;;;;1.20;88.03;101597.02;125091;1099;102820;-77
2023/01/26 08:59:20;;;;;;;43.23;18.90;;;;;;;1.12;87.40;101587.67;125704;1102;104265;-77
2023/01/26 09:03:03;;;;;;;48.90;20.00;;;;;;;1.14;87.24;101586.13;125627;1102;103289;-77
2023/01/26 09:06:27;;;;;;;51.43;20.07;;;;;;;1.13;87.62;101579.16;125654;1102;104201;-77
2023/01/26 09:09:08;;;;;;;55.23;21.33;;;;;;;1.15;87.47;101575.02;125866;1099;104134;-76
2023/01/26 09:12:07;;;;;;;49.90;19.12;;;;;;;1.13;87.63;101573.98;125170;1099;104280;-78
2023/01/26 09:14:44;;;;;;;90.70;44.50;;;;;;;1.09;87.58;101572.78;125621;1102;102911;-80
2023/01/26 09:17:28;;;;;;;48.37;21.53;;;;;;;1.10;87.96;101571.12;125647;1099;102902;-77
2023/01/26 09:20:00;;;;;;;48.27;22.13;;;;;;;1.09;87.60;101567.61;124907;1102;104108;-76
2023/01/26 09:22:38;;;;;;;47.27;20.83;;;;;;;1.09;88.05;101567.61;124883;1099;104179;-78
2023/01/26 09:25:11;;;;;;;45.47;19.80;;;;;;;1.11;87.49;101560.92;124866;1099;102568;-78
2023/01/26 09:27:43;;;;;;;46.50;20.63;;;;;;;1.11;87.40;101560.92;125054;1099;102363;-77
2023/01/26 09:30:17;;;;;;;50.70;21.53;;;;;;;1.11;87.19;101559.99;124936;1099;102925;-77
2023/01/26 09:32:51;;;;;;;;;;;;;;;1.08;87.56;101555.48;124980;1099;102581;-78
2023/01/26 09:35:23;;;;;;;51.50;21.50;;;;;;;1.06;87.40;101547.58;125017;1102;104232;-77
2023/01/26 09:37:58;;;;;;;51.37;23.03;;;;;;;1.10;87.50;101553.03;124851;1099;104348;-76
2023/01/26 09:40:50;;;;;;;53.37;22.93;;;;;;;1.08;87.52;101540.86;124785;1099;102611;-76
2023/01/26 09:43:38;;;;;;;55.33;22.70;;;;;;;1.11;87.75;101536.73;125020;1102;103901;-78
2023/01/26 09:46:21;;;;;;;51.20;22.23;;;;;;;1.15;87.21;101531.08;125069;1102;104223;-78
2023/01/26 09:49:06;;;;;;;48.23;22.33;;;;;;;1.19;87.45;101538.34;125125;1100;103289;-76
2023/01/26 09:51:45;;;;;;;50.10;21.77;;;;;;;1.26;87.37;101522.59;125281;1103;103060;-76
2023/01/26 09:54:36;;;;;;;49.70;21.10;;;;;;;1.30;87.44;101529.86;125278;1099;104210;-77
2023/01/26 09:57:22;;;;;;;50.87;22.57;;;;;;;1.31;87.27;101512.66;125580;1093;102495;-76
2023/01/26 09:59:58;;;;;;;49.83;22.77;;;;;;;1.32;87.07;101512.80;125748;1093;102623;-74
2023/01/26 10:02:43;;;;;;;51.23;21.67;;;;;;;1.33;87.50;101500.80;125328;1102;103002;-73
2023/01/26 10:05:22;;;;;;;45.73;21.97;;;;;;;1.32;87.10;101502.45;125132;1102;104294;-76
2023/01/26 10:08:03;;;;;;;50.67;23.50;;;;;;;1.29;86.98;101504.77;124939;1102;102384;-76
2023/01/26 10:10:42;;;;;;;;;;;;;;;1.34;86.59;101503.52;125087;1102;102954;-74
2023/01/26 10:13:31;;;;;;;48.27;21.37;;;;;;;1.38;87.13;101502.99;125144;1102;110405;-77
2023/01/26 10:16:20;;;;;;;48.63;21.13;;;;;;;1.40;87.20;101498.89;125669;1102;102186;-76
2023/01/26 10:19:09;;;;;;;50.17;22.80;;;;;;;1.40;87.67;101500.55;124895;1102;102050;-76
2023/01/26 10:21:47;;;;;;;49.80;21.40;;;;;;;1.46;87.14;101500.19;124862;1102;103326;-76
2023/01/26 10:24:24;;;;;;;45.57;21.30;;;;;;;1.51;87.05;101497.25;125967;1101;103106;-74
2023/01/26 10:26:59;;;;;;;45.47;20.87;;;;;;;1.54;87.14;101491.41;126063;1101;101995;-79
2023/01/26 10:29:32;;;;;;;44.90;20.33;;;;;;;1.56;86.80;101487.30;126108;1102;102087;-76
2023/01/26 10:32:05;;;;;;;48.87;21.52;;;;;;;1.57;86.67;101482.27;126044;1101;102921;-74
2023/01/26 10:34:41;;;;;;;47.20;21.63;;;;;;;1.60;86.94;101471.25;125967;1102;102273;-76
2023/01/26 10:37:22;;;;;;;48.40;22.50;;;;;;;1.63;86.71;101474.11;125191;1102;102222;-75
2023/01/26 10:40:02;;;;;;;43.33;20.53;;;;;;;1.59;86.11;101469.42;124834;1102;103627;-75
2023/01/26 10:42:36;;;;;;;46.77;20.97;;;;;;;1.61;86.70;101463.63;124843;1101;101881;-76
2023/01/26 10:45:28;;;;;;;42.30;18.73;;;;;;;1.60;86.36;101460.91;124835;1102;104265;-77
2023/01/26 10:48:19;;;;;;;39.40;18.57;;;;;;;1.54;86.72;101450.02;124730;1102;104095;-74
2023/01/26 10:50:51;;;;;;;38.50;17.73;;;;;;;1.47;86.48;101448.59;124698;1102;104175;-76
2023/01/26 10:53:27;;;;;;;41.17;19.77;;;;;;;1.43;86.15;101451.67;124886;1102;103138;-76
2023/01/26 10:56:05;;;;;;;44.40;19.77;;;;;;;1.39;86.63;101447.92;125118;1102;103456;-78
2023/01/26 10:58:59;;;;;;;45.43;18.53;;;;;;;1.40;86.59;101449.75;125120;1102;103271;-77
2023/01/26 11:01:51;;;;;;;42.80;20.10;;;;;;;1.40;86.38;101441.98;125125;1102;103449;-76
2023/01/26 11:04:23;;;;;;;41.03;18.60;;;;;;;1.42;86.17;101432.67;125120;1101;104323;-75
2023/01/26 11:06:55;;;;;;;37.60;17.93;;;;;;;1.39;86.23;101434.98;125270;1102;103398;-75
2023/01/26 11:09:30;;;;;;;39.23;19.83;;;;;;;1.35;86.01;101435.48;125170;1102;102973;-77
2023/01/26 11:12:06;;;;;;;39.07;19.20;;;;;;;1.37;86.42;101430.45;125226;1102;102767;-76
2023/01/26 11:15:04;;;;;;;38.43;17.70;;;;;;;1.37;86.37;101421.03;124916;1102;109384;-75
2023/01/26 11:17:41;;;;;;;38.77;19.00;;;;;;;1.40;86.30;101430.71;125430;1102;103087;-75
2023/01/26 11:20:50;;;;;;;38.43;18.77;;;;;;;1.44;86.73;101423.36;125628;1102;102187;-75
2023/01/26 11:23:45;;;;;;;37.30;17.63;;;;;;;1.47;86.08;101425.31;125444;1102;103067;-75
2023/01/26 11:26:37;;;;;;;41.13;18.40;;;;;;;1.44;85.73;101420.77;125426;1102;102773;-75
2023/01/26 11:29:40;;;;;;;42.60;17.90;;;;;;;1.43;85.20;101408.63;125214;1102;103361;-75
2023/01/26 11:32:22;;;;;;;39.60;17.87;;;;;;;1.49;85.89;101404.75;125181;1102;102934;-77
2023/01/26 11:35:09;;;;;;;36.43;17.50;;;;;;;1.51;85.30;101403.20;125009;1102;103486;-79
2023/01/26 11:37:51;;;;;;;33.10;15.53;;;;;;;1.54;85.38;101401.80;125138;1102;104156;-77
2023/01/26 11:40:37;;;;;;;40.13;18.37;;;;;;;1.54;86.05;101396.63;125450;1102;102936;-74
2023/01/26 11:43:32;;;;;;;38.77;16.43;;;;;;;1.49;85.78;101390.13;125575;1102;104125;-77
2023/01/26 11:46:34;;;;;;;34.13;16.67;;;;;;;1.38;84.93;101386.61;125386;1102;103108;-76
2023/01/26 11:49:26;;;;;;;36.73;16.27;;;;;;;1.33;85.61;101380.14;125313;1102;102668;-74
2023/01/26 11:52:11;;;;;;;41.83;17.13;;;;;;;1.32;85.25;101380.91;125342;1102;102756;-76
2023/01/26 11:55:04;;;;;;;37.83;17.40;;;;;;;1.34;84.97;101374.21;125182;1102;104201;-74
2023/01/26 11:57:43;;;;;;;39.13;17.80;;;;;;;1.35;85.18;101375.11;125034;1102;102662;-76
2023/01/26 12:00:22;;;;;;;41.00;18.40;;;;;;;1.38;85.58;101375.38;124882;1102;103674;-77
2023/01/26 12:03:06;;;;;;;37.97;16.63;;;;;;;1.41;85.53;101365.30;124877;1102;103147;-75
2023/01/26 12:05:47;;;;;;;40.20;17.37;;;;;;;1.41;85.16;101363.60;124802;1102;104297;-76
2023/01/26 12:08:28;;;;;;;38.30;16.33;;;;;;;1.40;85.19;101366.98;124961;1102;102978;-78
2023/01/26 12:14:07;;;;;;;37.37;17.50;;;;;;;1.46;85.35;101363.11;124883;1102;102447;-77
2023/01/26 12:17:23;;;;;;;39.90;17.60;;;;;;;1.53;85.83;101356.00;125163;1101;110148;-80
2023/01/26 12:24:27;;;;;;;41.97;18.87;;;;;;;1.45;84.39;101362.21;124829;1102;103950;-74
2023/01/26 12:27:09;;;;;;;39.43;18.43;;;;;;;1.40;85.40;101359.23;125000;1103;108713;-75
2023/01/26 12:29:57;;;;;;;41.20;18.20;;;;;;;1.35;84.90;101363.07;125016;1102;102568;-76
2023/01/26 12:32:29;;;;;;;40.27;18.10;;;;;;;1.32;85.17;101365.39;124970;1102;102978;-75
2023/01/26 12:35:01;;;;;;;40.70;17.80;;;;;;;1.33;85.07;101362.05;124960;1102;102197;-75
2023/01/26 12:37:53;;;;;;;38.73;17.63;;;;;;;1.27;83.49;101356.34;124911;1102;102671;-75
2023/01/26 12:40:36;;;;;;;41.13;18.90;;;;;;;1.23;84.80;101357.77;124802;1102;102777;-76
2023/01/26 12:43:29;;;;;;;38.63;18.50;;;;;;;1.22;84.77;101349.88;125034;1102;104169;-78
2023/01/26 12:46:09;;;;;;;41.53;17.63;;;;;;;1.19;84.40;101349.61;125182;1102;102918;-76
2023/01/26 12:48:45;;;;;;;40.40;18.93;;;;;;;1.10;84.78;101338.47;125309;1102;104287;-78
2023/01/26 12:51:26;;;;;;;49.67;23.97;;;;;;;1.18;84.76;101355.55;125028;1102;102341;-80
2023/01/26 12:54:05;;;;;;;41.93;21.77;;;;;;;1.11;84.66;101350.59;124998;1102;104195;-76
2023/01/26 12:56:44;;;;;;;38.33;18.60;;;;;;;1.06;84.58;101350.20;125211;1102;103018;-76
2023/01/26 12:59:21;;;;;;;41.00;19.00;;;;;;;0.99;84.24;101351.35;125098;1102;103328;-76
2023/01/26 13:01:53;;;;;;;37.17;18.43;;;;;;;1.01;84.46;101359.23;126137;1101;101354;-75
2023/01/26 13:04:25;;;;;;;36.37;17.17;;;;;;;1.03;84.91;101362.89;126102;1101;103706;-76
2023/01/26 13:07:30;;;;;;;35.00;16.87;;;;;;;1.02;84.49;101364.55;125993;1101;102256;-77